Aviation Digital Data Service (ADDS)

Output produced by METARs form (1448 UTC 04 August 2021)
found at http://www.aviationweather.gov/metar/data/
 
TAF LZSL 041330Z 0415/0424 VRB03KT 9999 SCT050 BKN100 
     TEMPO 0415/0417 20006KT